createdAt,value
2023-02-16T00:02:07.227Z,101315.33
2023-02-16T00:04:38.349Z,101318.20
2023-02-16T00:07:09.016Z,101318.45
2023-02-16T00:09:39.657Z,101322.05
2023-02-16T00:12:37.118Z,101326.36
2023-02-16T00:15:18.686Z,101323.42
2023-02-16T00:17:49.500Z,101322.30
2023-02-16T00:20:21.454Z,101317.97
2023-02-16T00:22:52.293Z,101320.26
2023-02-16T00:25:23.037Z,101318.57
2023-02-16T00:27:54.004Z,101318.04
2023-02-16T00:30:25.285Z,101324.79
2023-02-16T00:32:56.157Z,101326.19
2023-02-16T00:35:27.136Z,101328.00
2023-02-16T00:37:57.820Z,101326.02
2023-02-16T00:40:28.655Z,101325.89
2023-02-16T00:43:00.393Z,101321.45
2023-02-16T00:45:33.160Z,101319.28
2023-02-16T00:48:03.872Z,101314.86
2023-02-16T00:50:35.737Z,101309.70
2023-02-16T00:53:06.525Z,101310.50
2023-02-16T00:55:39.325Z,101305.88
2023-02-16T00:58:14.421Z,101312.39
2023-02-16T01:00:47.575Z,101316.67
2023-02-16T01:03:21.949Z,101315.17
2023-02-16T01:06:13.725Z,101315.67
2023-02-16T01:09:02.540Z,101310.20
2023-02-16T01:11:34.000Z,101302.35
2023-02-16T01:14:06.909Z,101307.88
2023-02-16T01:16:40.759Z,101308.30
2023-02-16T01:19:13.996Z,101305.64
2023-02-16T01:21:44.677Z,101306.34
2023-02-16T01:24:15.382Z,101305.08
2023-02-16T01:26:48.841Z,101299.20
2023-02-16T01:29:22.040Z,101296.67
2023-02-16T01:31:53.643Z,101301.98
2023-02-16T01:34:25.529Z,101301.55
2023-02-16T01:36:56.287Z,101302.57
2023-02-16T01:39:27.092Z,101294.95
2023-02-16T01:42:10.947Z,101295.92
2023-02-16T01:44:48.018Z,101292.72
2023-02-16T01:47:36.883Z,101292.89
2023-02-16T01:50:19.734Z,101296.08
2023-02-16T01:52:58.123Z,101294.75
2023-02-16T01:55:33.794Z,101284.91
2023-02-16T01:58:12.920Z,101283.08
2023-02-16T02:01:14.963Z,101291.30
2023-02-16T02:04:03.639Z,101288.83
2023-02-16T02:06:36.737Z,101282.13
2023-02-16T02:09:15.402Z,101280.63
2023-02-16T02:11:51.556Z,101277.26
2023-02-16T02:14:28.060Z,101280.83
2023-02-16T02:17:00.634Z,101282.01
2023-02-16T02:19:39.895Z,101281.96
2023-02-16T02:22:51.298Z,101282.92
2023-02-16T02:25:53.611Z,101287.43
2023-02-16T02:28:33.597Z,101294.52
2023-02-16T02:31:11.582Z,101289.91
2023-02-16T02:33:53.992Z,101289.70
2023-02-16T02:36:40.488Z,101287.58
2023-02-16T02:39:26.987Z,101277.30
2023-02-16T02:42:07.351Z,101277.85
2023-02-16T02:44:48.287Z,101274.98
2023-02-16T02:47:19.465Z,101277.40
2023-02-16T02:49:54.678Z,101270.60
2023-02-16T02:52:25.693Z,101267.18
2023-02-16T02:55:28.655Z,101263.43
2023-02-16T02:58:17.974Z,101256.59
2023-02-16T03:00:51.760Z,101260.04
2023-02-16T03:03:27.676Z,101262.29
2023-02-16T03:06:03.289Z,101262.33
2023-02-16T03:08:37.399Z,101262.77
2023-02-16T03:11:31.507Z,101263.42
2023-02-16T03:14:07.022Z,101269.55
2023-02-16T03:16:42.427Z,101268.09
2023-02-16T03:19:34.110Z,101271.90
2023-02-16T03:22:23.062Z,101273.05
2023-02-16T03:25:11.763Z,101277.13
2023-02-16T03:28:02.771Z,101271.09
2023-02-16T03:30:33.816Z,101274.84
2023-02-16T03:33:04.683Z,101270.59
2023-02-16T03:35:36.374Z,101278.01
2023-02-16T03:38:07.910Z,101271.44
2023-02-16T03:40:40.989Z,101284.87
2023-02-16T03:43:11.701Z,101286.55
2023-02-16T03:45:44.787Z,101285.02
2023-02-16T03:48:15.798Z,101292.02
2023-02-16T03:50:46.622Z,101290.10
2023-02-16T03:53:18.438Z,101286.77
2023-02-16T03:55:50.407Z,101285.11
2023-02-16T03:58:25.348Z,101282.62
2023-02-16T04:00:58.984Z,101282.62
2023-02-16T04:03:29.864Z,101276.54
2023-02-16T04:06:00.638Z,101275.54
2023-02-16T04:08:31.308Z,101275.21
2023-02-16T04:11:22.170Z,101272.90
2023-02-16T04:13:52.844Z,101271.38
2023-02-16T04:16:23.793Z,101270.70
2023-02-16T04:18:54.437Z,101277.48
2023-02-16T04:21:25.031Z,101276.09
2023-02-16T04:23:55.718Z,101274.33
2023-02-16T04:26:26.655Z,101271.63
2023-02-16T04:28:57.332Z,101269.48
2023-02-16T04:31:28.105Z,101270.17
2023-02-16T04:33:59.112Z,101264.23
2023-02-16T04:36:29.690Z,101269.98
2023-02-16T04:39:00.436Z,101267.80
2023-02-16T04:41:31.112Z,101265.52
2023-02-16T04:44:01.902Z,101259.15
2023-02-16T04:46:32.511Z,101262.98
2023-02-16T04:49:03.689Z,101261.40
2023-02-16T04:51:34.432Z,101261.52
2023-02-16T04:54:05.201Z,101257.67
2023-02-16T04:56:36.102Z,101261.42
2023-02-16T04:59:06.896Z,101263.42
2023-02-16T05:01:37.701Z,101264.30
2023-02-16T05:04:10.230Z,101267.30
2023-02-16T05:06:41.694Z,101264.80
2023-02-16T05:09:12.641Z,101263.29
2023-02-16T05:12:00.966Z,101263.03
2023-02-16T05:14:43.311Z,101266.40
2023-02-16T05:17:16.246Z,101263.23
2023-02-16T05:19:49.363Z,101262.53
2023-02-16T05:22:18.812Z,101263.46
2023-02-16T05:24:50.149Z,101269.60
2023-02-16T05:27:22.899Z,101267.45
2023-02-16T05:29:53.935Z,101270.17
2023-02-16T05:32:24.795Z,101274.48
2023-02-16T05:34:55.555Z,101279.80
2023-02-16T05:37:26.289Z,101278.48
2023-02-16T05:39:57.467Z,101281.70
2023-02-16T05:42:28.334Z,101280.75
2023-02-16T05:44:58.996Z,101281.02
2023-02-16T05:47:29.592Z,101279.58
2023-02-16T05:50:00.702Z,101281.67
2023-02-16T05:52:33.815Z,101284.86
2023-02-16T05:55:02.947Z,101291.72
2023-02-16T05:57:34.940Z,101287.55
2023-02-16T06:00:08.752Z,101295.55
2023-02-16T06:02:39.374Z,101290.21
2023-02-16T06:05:10.940Z,101303.30
2023-02-16T06:07:41.966Z,101300.14
2023-02-16T06:10:13.126Z,101296.41
2023-02-16T06:12:44.923Z,101294.88
2023-02-16T06:15:16.025Z,101295.63
2023-02-16T06:17:46.819Z,101292.96
2023-02-16T06:20:17.473Z,101293.20
2023-02-16T06:22:48.115Z,101291.77
2023-02-16T06:25:20.238Z,101291.05
2023-02-16T06:27:52.623Z,101287.89
2023-02-16T06:30:23.671Z,101288.79
2023-02-16T06:32:54.473Z,101289.41
2023-02-16T06:35:25.268Z,101283.98
2023-02-16T06:37:56.144Z,101289.97
2023-02-16T06:40:26.941Z,101285.52
2023-02-16T06:42:57.845Z,101289.61
2023-02-16T06:45:31.109Z,101293.85
2023-02-16T06:48:01.801Z,101297.09
2023-02-16T06:50:32.560Z,101294.30
2023-02-16T06:53:03.349Z,101288.16
2023-02-16T06:55:36.762Z,101291.10
2023-02-16T06:58:08.747Z,101293.20
2023-02-16T07:00:39.670Z,101291.80
2023-02-16T07:03:10.770Z,101285.44
2023-02-16T07:05:44.061Z,101287.50
2023-02-16T07:08:13.181Z,101287.70
2023-02-16T07:10:50.081Z,101283.73
2023-02-16T07:13:21.379Z,101283.16
2023-02-16T07:15:52.199Z,101279.65
2023-02-16T07:18:22.986Z,101270.61
2023-02-16T07:20:53.725Z,101262.70
2023-02-16T07:23:29.189Z,101272.30
2023-02-16T07:26:00.113Z,101267.85
2023-02-16T07:28:31.057Z,101270.13
2023-02-16T07:31:06.929Z,101265.80
2023-02-16T07:33:38.771Z,101269.35
2023-02-16T07:36:12.064Z,101271.52
2023-02-16T07:38:43.363Z,101281.18
2023-02-16T07:41:14.770Z,101287.75
2023-02-16T07:43:45.661Z,101295.04
2023-02-16T07:46:16.846Z,101301.00
2023-02-16T07:48:50.345Z,101298.29
2023-02-16T07:51:26.097Z,101297.25
2023-02-16T07:53:57.942Z,101293.66
2023-02-16T07:56:31.689Z,101287.66
2023-02-16T07:59:04.146Z,101289.34
2023-02-16T08:01:35.486Z,101288.42
2023-02-16T08:04:07.299Z,101285.98
2023-02-16T08:06:38.368Z,101289.05
2023-02-16T08:09:09.347Z,101290.36
2023-02-16T08:11:40.154Z,101289.77
2023-02-16T08:14:11.249Z,101291.54
2023-02-16T08:16:44.161Z,101293.90
2023-02-16T08:19:14.895Z,101293.56
2023-02-16T08:21:49.349Z,101295.19
2023-02-16T08:24:20.085Z,101293.67
2023-02-16T08:26:50.739Z,101289.98
2023-02-16T08:29:21.847Z,101284.35
2023-02-16T08:31:55.481Z,101282.66
2023-02-16T08:34:27.410Z,101280.95
2023-02-16T08:36:58.889Z,101280.67
2023-02-16T08:39:31.307Z,101282.58
2023-02-16T08:42:03.845Z,101282.09
2023-02-16T08:44:34.821Z,101281.77
2023-02-16T08:47:05.591Z,101275.36
2023-02-16T08:49:36.287Z,101273.09
2023-02-16T08:52:07.741Z,101271.01
2023-02-16T08:54:38.890Z,101269.56
2023-02-16T08:57:10.465Z,101267.39
2023-02-16T08:59:41.227Z,101267.45
2023-02-16T09:02:13.309Z,101266.77
2023-02-16T09:04:44.027Z,101264.78
2023-02-16T09:07:15.415Z,101257.50
2023-02-16T09:09:46.103Z,101251.95
2023-02-16T09:12:16.817Z,101250.18
2023-02-16T09:14:47.438Z,101257.27
2023-02-16T09:17:19.679Z,101256.27
2023-02-16T09:19:50.752Z,101252.69
2023-02-16T09:22:21.763Z,101252.03
2023-02-16T09:24:52.380Z,101246.84
2023-02-16T09:27:23.169Z,101245.10
2023-02-16T09:29:53.958Z,101253.85
2023-02-16T09:32:29.077Z,101255.43
2023-02-16T09:34:59.774Z,101248.84
2023-02-16T09:37:30.536Z,101248.05
2023-02-16T09:40:01.185Z,101243.58
2023-02-16T09:42:43.574Z,101243.88
2023-02-16T09:45:18.295Z,101239.80
2023-02-16T09:47:54.396Z,101241.91
2023-02-16T09:50:54.355Z,101226.69
2023-02-16T09:53:36.106Z,101235.91
2023-02-16T09:56:16.860Z,101239.86
2023-02-16T09:58:53.004Z,101240.46
2023-02-16T10:01:33.842Z,101239.83
2023-02-16T10:04:21.617Z,101244.05
2023-02-16T10:07:04.302Z,101241.17
2023-02-16T10:09:37.176Z,101246.83
2023-02-16T10:12:12.497Z,101250.82
2023-02-16T10:14:45.562Z,101253.88
2023-02-16T10:17:24.230Z,101249.60
2023-02-16T10:19:58.922Z,101247.02
2023-02-16T10:22:36.138Z,101242.73
2023-02-16T10:25:13.424Z,101241.02
2023-02-16T10:27:49.362Z,101247.19
2023-02-16T10:30:22.073Z,101241.43
2023-02-16T10:33:06.260Z,101239.80
2023-02-16T10:35:46.856Z,101237.98
2023-02-16T10:38:26.890Z,101234.25
2023-02-16T10:41:05.433Z,101225.66
2023-02-16T10:43:46.591Z,101224.14
2023-02-16T10:46:23.066Z,101215.77
2023-02-16T10:48:57.264Z,101217.01
2023-02-16T10:51:32.478Z,101209.31
2023-02-16T10:54:05.943Z,101204.70
2023-02-16T10:56:54.204Z,101203.33
2023-02-16T10:59:27.333Z,101201.93
2023-02-16T11:02:01.580Z,101203.30
2023-02-16T11:04:41.720Z,101199.85
2023-02-16T11:07:16.082Z,101199.63
2023-02-16T11:09:51.138Z,101201.00
2023-02-16T11:12:28.949Z,101199.75
2023-02-16T11:15:03.411Z,101199.42
2023-02-16T11:17:49.945Z,101194.24
2023-02-16T11:20:31.130Z,101195.96
2023-02-16T11:23:23.124Z,101190.29
2023-02-16T11:26:01.066Z,101188.36
2023-02-16T11:28:36.063Z,101188.52
2023-02-16T11:31:19.412Z,101182.09
2023-02-16T11:34:03.816Z,101176.19
2023-02-16T11:36:40.351Z,101176.70
2023-02-16T11:39:20.087Z,101167.29
2023-02-16T11:41:54.718Z,101163.79
2023-02-16T11:44:32.718Z,101163.34
2023-02-16T11:47:06.611Z,101159.39
2023-02-16T11:49:40.505Z,101154.21
2023-02-16T11:52:30.579Z,101149.33
2023-02-16T11:55:03.378Z,101147.88
2023-02-16T11:57:36.800Z,101144.96
2023-02-16T12:00:19.076Z,101141.59
2023-02-16T12:03:30.491Z,101138.77
2023-02-16T12:06:12.972Z,101135.54
2023-02-16T12:09:09.299Z,101140.55
2023-02-16T12:11:54.697Z,101134.09
2023-02-16T12:14:36.643Z,101135.54
2023-02-16T12:17:20.131Z,101131.39
2023-02-16T12:19:57.677Z,101126.61
2023-02-16T12:22:40.953Z,101123.84
2023-02-16T12:25:33.447Z,101117.90
2023-02-16T12:28:16.035Z,101116.00
2023-02-16T12:30:58.598Z,101114.20
2023-02-16T12:33:48.024Z,101111.11
2023-02-16T12:36:40.779Z,101109.09
2023-02-16T12:39:21.741Z,101110.50
2023-02-16T12:42:03.761Z,101106.97
2023-02-16T12:44:42.770Z,101100.90
2023-02-16T12:47:19.510Z,101096.98
2023-02-16T12:49:56.456Z,101096.43
2023-02-16T12:52:37.392Z,101096.01
2023-02-16T12:55:23.402Z,101089.68
2023-02-16T12:58:02.903Z,101088.09
2023-02-16T13:00:42.825Z,101088.91
2023-02-16T13:03:27.353Z,101085.79
2023-02-16T13:06:09.565Z,101085.27
2023-02-16T13:08:45.199Z,101082.71
2023-02-16T13:11:21.636Z,101080.86
2023-02-16T13:13:58.963Z,101075.14
2023-02-16T13:16:40.713Z,101074.77
2023-02-16T13:19:14.974Z,101072.84
2023-02-16T13:22:12.852Z,101074.69
2023-02-16T13:24:54.333Z,101070.35
2023-02-16T13:27:38.962Z,101070.30
2023-02-16T13:30:28.934Z,101069.72
2023-02-16T13:33:15.404Z,101071.71
2023-02-16T13:36:00.523Z,101067.07
2023-02-16T13:38:57.783Z,101066.27
2023-02-16T13:41:42.727Z,101059.00
2023-02-16T13:44:17.100Z,101064.54
2023-02-16T13:46:53.030Z,101065.07
2023-02-16T13:49:38.505Z,101065.52
2023-02-16T13:52:11.340Z,101063.89
2023-02-16T13:54:43.903Z,101063.34
2023-02-16T13:57:18.416Z,101067.16
2023-02-16T14:00:02.110Z,101066.09
2023-02-16T14:03:10.405Z,101070.99
2023-02-16T14:05:44.341Z,101074.02
2023-02-16T14:08:32.314Z,101069.85
2023-02-16T14:11:12.038Z,101071.44
2023-02-16T14:13:53.127Z,101072.36
2023-02-16T14:16:35.161Z,101076.11
2023-02-16T14:19:18.992Z,101080.61
2023-02-16T14:21:52.063Z,101081.39
2023-02-16T14:24:35.868Z,101080.30
2023-02-16T14:27:09.422Z,101081.66
2023-02-16T14:29:43.814Z,101087.35
2023-02-16T14:32:26.842Z,101084.33
2023-02-16T14:35:09.167Z,101080.65
2023-02-16T14:37:45.709Z,101077.33
2023-02-16T14:40:23.655Z,101082.34
2023-02-16T14:43:04.998Z,101083.74
2023-02-16T14:46:08.960Z,101085.69
2023-02-16T14:49:18.448Z,101087.34
2023-02-16T14:52:24.601Z,101087.91
2023-02-16T14:55:17.541Z,101088.12
2023-02-16T14:57:53.282Z,101087.16
2023-02-16T15:00:31.036Z,101089.86
2023-02-16T15:03:03.942Z,101089.13
2023-02-16T15:05:37.952Z,101089.02
2023-02-16T15:08:22.579Z,101088.99
2023-02-16T15:10:55.890Z,101088.04
2023-02-16T15:13:29.598Z,101090.64
2023-02-16T15:16:04.548Z,101087.88
2023-02-16T15:18:42.945Z,101085.30
2023-02-16T15:21:22.059Z,101082.08
2023-02-16T15:23:56.422Z,101085.39
2023-02-16T15:26:29.783Z,101087.80
2023-02-16T15:29:02.457Z,101086.09
2023-02-16T15:31:37.110Z,101083.41
2023-02-16T15:34:13.178Z,101078.23
2023-02-16T15:36:46.201Z,101076.73
2023-02-16T15:39:38.518Z,101079.59
2023-02-16T15:42:23.699Z,101080.96
2023-02-16T15:44:55.047Z,101081.84
2023-02-16T15:47:27.690Z,101081.82
2023-02-16T15:49:59.408Z,101078.98
2023-02-16T15:52:34.921Z,101080.80
2023-02-16T15:55:09.120Z,101081.27
2023-02-16T15:57:41.830Z,101077.23
2023-02-16T16:00:19.421Z,101078.51
2023-02-16T16:02:52.802Z,101077.38
2023-02-16T16:05:28.829Z,101074.71
2023-02-16T16:08:00.376Z,101076.52
2023-02-16T16:10:35.705Z,101076.47
2023-02-16T16:13:10.132Z,101079.77
2023-02-16T16:15:43.901Z,101081.85
2023-02-16T16:18:43.357Z,101083.02
2023-02-16T16:21:34.412Z,101085.27
2023-02-16T16:24:08.122Z,101085.14
2023-02-16T16:26:55.483Z,101087.63
2023-02-16T16:29:35.572Z,101082.91
2023-02-16T16:32:07.757Z,101085.99
2023-02-16T16:34:41.686Z,101085.99
2023-02-16T16:37:29.745Z,101088.63
2023-02-16T16:40:06.952Z,101088.27
2023-02-16T16:42:40.208Z,101090.19
2023-02-16T16:45:37.782Z,101086.02
2023-02-16T16:48:18.707Z,101084.03
2023-02-16T16:50:50.384Z,101080.77
2023-02-16T16:53:42.196Z,101080.48
2023-02-16T16:56:15.292Z,101086.57
2023-02-16T16:58:51.581Z,101088.52
2023-02-16T17:01:24.393Z,101090.08
2023-02-16T17:03:57.429Z,101082.23
2023-02-16T17:06:28.775Z,101079.10
2023-02-16T17:08:59.460Z,101078.94
2023-02-16T17:11:32.517Z,101074.48
2023-02-16T17:14:15.682Z,101077.84
2023-02-16T17:16:48.950Z,101078.70
2023-02-16T17:19:22.322Z,101080.55
2023-02-16T17:21:53.037Z,101085.12
2023-02-16T17:24:23.852Z,101081.52
2023-02-16T17:26:54.434Z,101078.81
2023-02-16T17:29:25.258Z,101082.91
2023-02-16T17:31:56.123Z,101076.79
2023-02-16T17:34:29.667Z,101078.91
2023-02-16T17:37:07.275Z,101075.60
2023-02-16T17:39:38.274Z,101074.00
2023-02-16T17:42:11.291Z,101071.38
2023-02-16T17:44:43.207Z,101068.73
2023-02-16T17:47:17.858Z,101066.18
2023-02-16T17:49:48.890Z,101063.60
2023-02-16T17:52:20.146Z,101064.06
2023-02-16T17:54:51.301Z,101062.93
2023-02-16T17:57:22.368Z,101059.36
2023-02-16T17:59:53.336Z,101055.25
2023-02-16T18:02:27.280Z,101054.66
2023-02-16T18:04:59.159Z,101062.17
2023-02-16T18:07:36.075Z,101065.45
2023-02-16T18:10:09.377Z,101067.50
2023-02-16T18:12:40.252Z,101074.02
2023-02-16T18:15:11.981Z,101072.63
2023-02-16T18:17:43.087Z,101075.40
2023-02-16T18:20:19.828Z,101078.80
2023-02-16T18:22:52.232Z,101077.08
2023-02-16T18:25:23.729Z,101077.12
2023-02-16T18:27:55.020Z,101076.27
2023-02-16T18:30:29.109Z,101080.04
2023-02-16T18:33:00.231Z,101084.81
2023-02-16T18:35:33.697Z,101077.90
2023-02-16T18:38:09.569Z,101088.64
2023-02-16T18:40:42.334Z,101088.81
2023-02-16T18:43:14.087Z,101083.23
2023-02-16T18:45:47.943Z,101082.80
2023-02-16T18:48:19.530Z,101078.27
2023-02-16T18:50:50.649Z,101091.96
2023-02-16T18:53:21.466Z,101089.77
2023-02-16T18:55:54.006Z,101086.66
2023-02-16T18:58:27.335Z,101084.98
2023-02-16T19:01:14.726Z,101078.70
2023-02-16T19:03:48.328Z,101084.76
2023-02-16T19:06:19.933Z,101091.72
2023-02-16T19:08:52.975Z,101089.64
2023-02-16T19:11:28.513Z,101096.52
2023-02-16T19:14:00.254Z,101101.87
2023-02-16T19:16:31.743Z,101109.08
2023-02-16T19:19:03.018Z,101110.35
2023-02-16T19:21:34.415Z,101107.85
2023-02-16T19:24:07.033Z,101103.88
2023-02-16T19:26:40.037Z,101100.14
2023-02-16T19:29:12.899Z,101094.70
2023-02-16T19:31:43.675Z,101091.94
2023-02-16T19:34:14.761Z,101087.54
2023-02-16T19:36:45.736Z,101081.08
2023-02-16T19:39:16.678Z,101061.05
2023-02-16T19:41:47.329Z,101076.34
2023-02-16T19:44:18.311Z,101080.58
2023-02-16T19:46:49.188Z,101079.79
2023-02-16T19:49:20.047Z,101075.04
2023-02-16T19:51:51.546Z,101076.19
2023-02-16T19:54:22.625Z,101075.35
2023-02-16T19:56:54.274Z,101077.14
2023-02-16T19:59:25.287Z,101076.17
2023-02-16T20:01:56.453Z,101073.41
2023-02-16T20:04:27.521Z,101071.81
2023-02-16T20:06:58.461Z,101075.67
2023-02-16T20:09:29.193Z,101075.92
2023-02-16T20:12:00.200Z,101071.65
2023-02-16T20:14:31.096Z,101071.58
2023-02-16T20:17:02.443Z,101072.16
2023-02-16T20:19:33.348Z,101075.43
2023-02-16T20:22:04.262Z,101077.37
2023-02-16T20:24:35.252Z,101072.28
2023-02-16T20:27:06.455Z,101072.21
2023-02-16T20:29:37.514Z,101069.36
2023-02-16T20:32:08.643Z,101071.94
2023-02-16T20:34:39.833Z,101067.84
2023-02-16T20:37:11.106Z,101069.52
2023-02-16T20:39:42.099Z,101071.05
2023-02-16T20:42:12.994Z,101074.66
2023-02-16T20:44:44.277Z,101075.20
2023-02-16T20:47:15.715Z,101075.11
2023-02-16T20:49:46.774Z,101075.11
2023-02-16T20:52:17.729Z,101070.92
2023-02-16T20:54:48.485Z,101067.98
2023-02-16T20:57:26.766Z,101062.83
2023-02-16T20:59:58.293Z,101062.41
2023-02-16T21:02:29.279Z,101062.66
2023-02-16T21:05:00.394Z,101062.42
2023-02-16T21:07:31.214Z,101057.23
2023-02-16T21:10:02.053Z,101055.25
2023-02-16T21:12:32.948Z,101052.65
2023-02-16T21:15:04.071Z,101053.95
2023-02-16T21:17:35.149Z,101047.41
2023-02-16T21:20:06.751Z,101038.55
2023-02-16T21:22:37.514Z,101043.58
2023-02-16T21:25:11.073Z,101046.36
2023-02-16T21:27:41.931Z,101041.61
2023-02-16T21:30:14.774Z,101040.16
2023-02-16T21:32:45.632Z,101033.96
2023-02-16T21:35:16.388Z,101031.36
2023-02-16T21:37:47.090Z,101027.02
2023-02-16T21:40:35.895Z,101024.34
2023-02-16T21:43:06.618Z,101018.34
2023-02-16T21:45:37.552Z,101012.09
2023-02-16T21:48:25.958Z,101005.52
2023-02-16T21:50:56.769Z,101007.00
2023-02-16T21:53:27.620Z,101009.77
2023-02-16T21:56:15.624Z,101012.78
2023-02-16T21:58:46.613Z,101014.30
2023-02-16T22:01:23.208Z,101009.75
2023-02-16T22:03:58.409Z,101003.82
2023-02-16T22:06:32.224Z,101001.88
2023-02-16T22:09:06.923Z,101001.75
2023-02-16T22:11:37.772Z,100999.66
2023-02-16T22:14:08.673Z,100998.17
2023-02-16T22:16:40.479Z,101005.02
2023-02-16T22:19:14.610Z,101001.23
2023-02-16T22:21:46.916Z,100997.16
2023-02-16T22:24:19.568Z,101001.79
2023-02-16T22:26:52.004Z,100993.81
2023-02-16T22:29:22.698Z,100992.95
2023-02-16T22:31:53.419Z,100991.81
2023-02-16T22:34:24.265Z,100989.34
2023-02-16T22:36:54.936Z,100984.44
2023-02-16T22:39:25.642Z,100981.67
2023-02-16T22:41:56.320Z,100982.13
2023-02-16T22:44:27.116Z,100980.99
2023-02-16T22:46:57.723Z,100978.45
2023-02-16T22:49:28.635Z,100975.41
2023-02-16T22:51:59.409Z,100974.50
2023-02-16T22:54:30.041Z,100971.85
2023-02-16T22:57:01.282Z,100971.00
2023-02-16T22:59:31.992Z,100959.77
2023-02-16T23:02:02.653Z,100954.81
2023-02-16T23:04:33.356Z,100944.45
2023-02-16T23:07:03.975Z,100945.51
2023-02-16T23:09:34.715Z,100937.39
2023-02-16T23:12:06.479Z,100926.58
2023-02-16T23:14:40.202Z,100930.05
2023-02-16T23:17:11.353Z,100927.65
2023-02-16T23:19:42.006Z,100930.96
2023-02-16T23:22:12.991Z,100931.64
2023-02-16T23:24:43.976Z,100921.77
2023-02-16T23:27:14.814Z,100922.87
2023-02-16T23:29:45.479Z,100919.48
2023-02-16T23:32:16.198Z,100920.20
2023-02-16T23:34:48.274Z,100921.05
2023-02-16T23:37:19.724Z,100914.38
2023-02-16T23:39:50.461Z,100912.42
2023-02-16T23:42:21.585Z,100913.70
2023-02-16T23:44:52.312Z,100907.83
2023-02-16T23:47:23.686Z,100905.23
2023-02-16T23:49:54.395Z,100906.74
2023-02-16T23:52:25.162Z,100901.28
2023-02-16T23:54:55.872Z,100898.25
2023-02-16T23:57:26.547Z,100889.92
2023-02-16T23:59:57.137Z,100884.69
